Flight Track Log - Related Links

Times and Time Zones

All times are in EDT time to prevent confusion due to time zone crossing. See the CTL309 flight status page for this flight to view local times or setup timezone preferences in your user account.

Time Position Orientation Groundspeed Altitude Reporting Facility
EDT Latitude Longitude Course Direction KTS MPH feet Rate Location/Type
Wed 03:40:47 AM 40.0722 -83.1169 244° Southwest 146 168 1,400  Level Indianapolis Center
Wed 03:41:11 AM 40.0644 -83.1378 244° Southwest 168 193 1,500 643 Climbing Indianapolis Center
Wed 03:42:11 AM 40.0397 -83.1922 239° Southwest 177 204 2,300 700 Climbing Indianapolis Center
Wed 03:43:11 AM 40.0169 -83.2369 236° Southwest 170 196 2,900 650 Climbing Indianapolis Center
Wed 03:44:11 AM 39.9919 -83.2869 237° Southwest 167 192 3,600 545 Climbing Indianapolis Center
Wed 03:45:12 AM 39.9653 -83.3336 233° Southwest 162 186 4,000 149 Climbing Indianapolis Center
Wed 03:46:12 AM 39.9397 -83.3886 239° Southwest 169 194 3,900 -50 Descending Indianapolis Center
Wed 03:47:12 AM 39.9133 -83.4419 237° Southwest 173 199 3,900  Level Indianapolis Center
Wed 03:48:15 AM 39.8839 -83.5000 237° Southwest 170 196 3,900  Level Indianapolis Center
Wed 03:49:13 AM 39.8619 -83.5450 238° Southwest 172 198 3,900 51 Level Indianapolis Center
Wed 03:50:13 AM 39.8383 -83.6000 241° Southwest 173 199 4,000 50 Climbing Indianapolis Center
Wed 03:51:13 AM 39.8128 -83.6525 238° Southwest 173 199 4,000 -50 Level Indianapolis Center
Wed 03:52:13 AM 39.7861 -83.7042 236° Southwest 172 198 3,900 -50 Descending Indianapolis Center
Wed 03:53:14 AM 39.7583 -83.7556 235° Southwest 172 198 3,900  Level Indianapolis Center
Wed 03:54:14 AM 39.7331 -83.8092 238° Southwest 172 198 3,900 50 Level Indianapolis Center
Wed 03:55:14 AM 39.7114 -83.8644 243° Southwest 172 198 4,000 50 Climbing Indianapolis Center
Wed 03:56:14 AM 39.6892 -83.9183 242° Southwest 171 197 4,000 -50 Level Indianapolis Center
Wed 03:57:15 AM 39.6650 -83.9733 240° Southwest 171 197 3,900 -50 Descending Indianapolis Center
Wed 03:58:15 AM 39.6400 -84.0258 238° Southwest 171 197 3,900  Level Indianapolis Center
Wed 03:59:15 AM 39.6136 -84.0769 236° Southwest 170 196 3,900  Level Indianapolis Center
Wed 04:00:16 AM 39.5875 -84.1286 237° Southwest 170 196 3,900  Level Indianapolis Center
Wed 04:01:16 AM 39.5619 -84.1811 238° Southwest 170 196 3,900  Level Indianapolis Center

Login

Don't have an account? Register now (free) for customized features, flight alerts, and more!